createdAt,value
2018-03-25T00:00:30.824Z,4.13
2018-03-25T00:02:24.152Z,3.87
2018-03-25T00:03:24.094Z,3.92
2018-03-25T00:05:17.386Z,3.86
2018-03-25T00:06:17.346Z,3.88
2018-03-25T00:08:10.665Z,3.84
2018-03-25T00:09:10.617Z,3.76
2018-03-25T00:11:04.005Z,3.74
2018-03-25T00:12:03.940Z,3.77
2018-03-25T00:13:57.238Z,3.69
2018-03-25T00:14:57.230Z,3.73
2018-03-25T00:16:50.519Z,3.66
2018-03-25T00:17:50.455Z,3.69
2018-03-25T00:19:43.752Z,3.70
2018-03-25T00:20:43.715Z,3.60
2018-03-25T00:22:37.027Z,3.58
2018-03-25T00:23:37.069Z,3.65
2018-03-25T00:25:30.260Z,3.66
2018-03-25T00:26:30.232Z,3.66
2018-03-25T00:28:23.844Z,3.68
2018-03-25T00:29:23.625Z,3.76
2018-03-25T00:31:16.926Z,3.77
2018-03-25T00:32:16.886Z,3.69
2018-03-25T00:34:10.203Z,3.76
2018-03-25T00:35:10.139Z,3.76
2018-03-25T00:37:03.730Z,3.81
2018-03-25T00:38:03.475Z,3.81
2018-03-25T00:39:56.790Z,3.86
2018-03-25T00:40:56.757Z,3.74
2018-03-25T00:42:50.081Z,3.73
2018-03-25T00:43:50.005Z,3.86
2018-03-25T00:45:43.427Z,3.80
2018-03-25T00:46:43.315Z,3.84
2018-03-25T00:48:36.623Z,3.80
2018-03-25T00:49:36.636Z,3.84
2018-03-25T00:51:29.895Z,3.77
2018-03-25T00:52:29.825Z,3.84
2018-03-25T00:54:23.374Z,3.80
2018-03-25T00:55:23.189Z,3.70
2018-03-25T00:57:16.495Z,3.74
2018-03-25T00:58:16.425Z,3.69
2018-03-25T01:00:09.729Z,3.76
2018-03-25T01:01:09.675Z,3.74
2018-03-25T01:03:03.005Z,3.84
2018-03-25T01:04:02.950Z,3.80
2018-03-25T01:05:56.276Z,3.84
2018-03-25T01:06:56.290Z,3.84
2018-03-25T01:08:49.502Z,3.83
2018-03-25T01:09:49.471Z,3.83
2018-03-25T01:11:42.901Z,3.83
2018-03-25T01:12:42.768Z,3.87
2018-03-25T01:14:36.076Z,3.95
2018-03-25T01:15:36.078Z,3.95
2018-03-25T01:17:29.360Z,3.88
2018-03-25T01:18:29.294Z,3.94
2018-03-25T01:20:22.588Z,3.91
2018-03-25T01:21:22.587Z,3.92
2018-03-25T01:23:15.861Z,3.88
2018-03-25T01:24:15.905Z,3.88
2018-03-25T01:26:09.180Z,3.88
2018-03-25T01:27:09.074Z,3.91
2018-03-25T01:29:02.485Z,3.87
2018-03-25T01:30:02.427Z,3.92
2018-03-25T01:31:55.740Z,3.86
2018-03-25T01:32:55.687Z,3.88
2018-03-25T01:34:50.015Z,3.88
2018-03-25T01:35:49.937Z,3.88
2018-03-25T01:37:43.415Z,3.76
2018-03-25T01:38:43.260Z,3.78
2018-03-25T01:40:36.557Z,3.80
2018-03-25T01:41:36.536Z,3.84
2018-03-25T01:43:29.861Z,3.76
2018-03-25T01:44:29.785Z,3.73
2018-03-25T01:46:23.242Z,3.69
2018-03-25T01:47:23.096Z,3.80
2018-03-25T01:49:17.401Z,3.60
2018-03-25T01:50:17.347Z,3.63
2018-03-25T01:52:10.656Z,3.66
2018-03-25T01:53:10.590Z,3.65
2018-03-25T01:55:03.892Z,3.65
2018-03-25T01:56:03.856Z,3.65
2018-03-25T01:57:57.190Z,3.63
2018-03-25T01:58:57.152Z,3.51
2018-03-25T02:00:50.422Z,3.62
2018-03-25T02:01:50.375Z,3.51
2018-03-25T02:03:43.773Z,3.59
2018-03-25T02:04:43.728Z,3.62
2018-03-25T02:06:37.011Z,3.63
2018-03-25T02:07:36.970Z,3.55
2018-03-25T02:09:30.282Z,3.50
2018-03-25T02:10:30.223Z,3.44
2018-03-25T02:12:23.522Z,3.34
2018-03-25T02:13:23.482Z,3.37
2018-03-25T02:15:16.793Z,3.34
2018-03-25T02:16:16.732Z,3.29
2018-03-25T02:18:10.061Z,3.34
2018-03-25T02:19:10.008Z,3.34
2018-03-25T02:21:03.586Z,3.23
2018-03-25T02:22:03.428Z,3.25
2018-03-25T02:23:56.742Z,3.25
2018-03-25T02:24:56.691Z,3.14
2018-03-25T02:26:49.997Z,3.18
2018-03-25T02:27:49.947Z,3.10
2018-03-25T02:29:43.269Z,3.14
2018-03-25T02:30:43.201Z,3.16
2018-03-25T02:32:36.501Z,3.16
2018-03-25T02:33:36.456Z,3.08
2018-03-25T02:35:29.767Z,3.05
2018-03-25T02:36:29.707Z,3.03
2018-03-25T02:38:23.028Z,3.01
2018-03-25T02:39:22.977Z,2.97
2018-03-25T02:41:16.272Z,2.90
2018-03-25T02:42:16.272Z,2.97
2018-03-25T02:44:09.535Z,2.90
2018-03-25T02:45:09.490Z,2.92
2018-03-25T02:47:03.069Z,2.89
2018-03-25T02:48:02.887Z,2.82
2018-03-25T02:49:56.282Z,2.83
2018-03-25T02:50:56.177Z,2.77
2018-03-25T02:52:49.438Z,2.80
2018-03-25T02:53:49.391Z,2.74
2018-03-25T02:55:42.753Z,2.77
2018-03-25T02:56:42.687Z,2.64
2018-03-25T02:58:35.984Z,2.67
2018-03-25T02:59:35.944Z,2.69
2018-03-25T03:01:29.273Z,2.64
2018-03-25T03:02:29.248Z,2.69
2018-03-25T03:04:22.499Z,2.69
2018-03-25T03:05:22.462Z,2.54
2018-03-25T03:07:15.772Z,2.64
2018-03-25T03:08:15.742Z,2.74
2018-03-25T03:10:09.062Z,2.62
2018-03-25T03:11:08.978Z,2.64
2018-03-25T03:13:02.424Z,2.71
2018-03-25T03:14:02.371Z,2.74
2018-03-25T03:15:55.697Z,2.64
2018-03-25T03:16:55.682Z,2.60
2018-03-25T03:18:49.949Z,2.64
2018-03-25T03:19:49.902Z,2.69
2018-03-25T03:21:43.379Z,2.56
2018-03-25T03:22:43.155Z,2.72
2018-03-25T03:24:36.458Z,2.72
2018-03-25T03:25:36.522Z,2.60
2018-03-25T03:27:29.753Z,2.64
2018-03-25T03:28:29.667Z,2.69
2018-03-25T03:30:22.978Z,2.64
2018-03-25T03:31:22.929Z,2.72
2018-03-25T03:33:16.254Z,2.69
2018-03-25T03:34:16.192Z,2.67
2018-03-25T03:36:09.538Z,2.79
2018-03-25T03:37:09.444Z,2.72
2018-03-25T03:39:02.884Z,2.77
2018-03-25T03:40:02.829Z,2.67
2018-03-25T03:41:56.153Z,2.71
2018-03-25T03:42:56.083Z,2.71
2018-03-25T03:44:49.388Z,2.72
2018-03-25T03:45:49.344Z,2.68
2018-03-25T03:47:42.673Z,2.71
2018-03-25T03:48:42.603Z,2.75
2018-03-25T03:50:35.917Z,2.67
2018-03-25T03:51:35.950Z,2.64
2018-03-25T03:53:29.204Z,2.67
2018-03-25T03:54:29.142Z,2.57
2018-03-25T03:56:22.553Z,2.72
2018-03-25T03:57:22.483Z,2.69
2018-03-25T03:59:15.833Z,2.69
2018-03-25T04:00:15.813Z,2.68
2018-03-25T04:02:09.044Z,2.71
2018-03-25T04:03:08.999Z,2.69
2018-03-25T04:05:02.358Z,2.67
2018-03-25T04:06:02.287Z,2.62
2018-03-25T04:07:55.602Z,2.74
2018-03-25T04:08:55.649Z,2.74
2018-03-25T04:10:48.895Z,2.62
2018-03-25T04:11:48.811Z,2.68
2018-03-25T04:13:42.222Z,2.62
2018-03-25T04:14:42.175Z,2.62
2018-03-25T04:16:35.508Z,2.62
2018-03-25T04:17:35.434Z,2.61
2018-03-25T04:19:28.760Z,2.60
2018-03-25T04:20:28.704Z,2.64
2018-03-25T04:22:22.030Z,2.60
2018-03-25T04:23:21.983Z,2.61
2018-03-25T04:25:15.313Z,2.60
2018-03-25T04:26:15.258Z,2.54
2018-03-25T04:28:08.552Z,2.61
2018-03-25T04:29:08.516Z,2.61
2018-03-25T04:31:02.148Z,2.65
2018-03-25T04:32:01.851Z,2.62
2018-03-25T04:33:55.173Z,2.64
2018-03-25T04:34:55.118Z,2.61
2018-03-25T04:36:48.403Z,2.62
2018-03-25T04:37:48.369Z,2.54
2018-03-25T04:39:41.786Z,2.65
2018-03-25T04:40:41.678Z,2.53
2018-03-25T04:42:35.019Z,2.60
2018-03-25T04:43:34.945Z,2.65
2018-03-25T04:45:28.244Z,2.56
2018-03-25T04:46:28.199Z,2.56
2018-03-25T04:48:21.546Z,2.56
2018-03-25T04:49:21.506Z,2.53
2018-03-25T04:51:14.810Z,2.57
2018-03-25T04:52:14.764Z,2.54
2018-03-25T04:54:08.052Z,2.56
2018-03-25T04:55:08.013Z,2.60
2018-03-25T04:57:01.367Z,2.56
2018-03-25T04:58:01.296Z,2.50
2018-03-25T04:59:54.612Z,2.53
2018-03-25T05:00:54.562Z,2.44
2018-03-25T05:02:47.876Z,2.54
2018-03-25T05:03:47.820Z,2.46
2018-03-25T05:05:41.202Z,2.53
2018-03-25T05:06:41.145Z,2.54
2018-03-25T05:08:34.440Z,2.51
2018-03-25T05:09:34.400Z,2.56
2018-03-25T05:11:27.725Z,2.54
2018-03-25T05:12:27.654Z,2.44
2018-03-25T05:14:21.178Z,2.56
2018-03-25T05:15:21.051Z,2.50
2018-03-25T05:17:14.365Z,2.56
2018-03-25T05:18:14.306Z,2.46
2018-03-25T05:20:07.600Z,2.62
2018-03-25T05:21:07.557Z,2.61
2018-03-25T05:23:01.101Z,2.54
2018-03-25T05:24:00.860Z,2.56
2018-03-25T05:25:54.231Z,2.54
2018-03-25T05:26:54.101Z,2.56
2018-03-25T05:28:47.432Z,2.57
2018-03-25T05:29:47.364Z,2.49
2018-03-25T05:31:40.800Z,2.56
2018-03-25T05:32:40.674Z,2.44
2018-03-25T05:34:34.005Z,2.38
2018-03-25T05:35:33.942Z,2.38
2018-03-25T05:37:27.263Z,2.36
2018-03-25T05:38:27.210Z,2.26
2018-03-25T05:40:20.515Z,2.35
2018-03-25T05:41:20.456Z,2.24
2018-03-25T05:43:13.767Z,2.24
2018-03-25T05:44:13.714Z,2.28
2018-03-25T05:46:07.009Z,2.24
2018-03-25T05:47:06.966Z,2.22
2018-03-25T05:49:00.342Z,2.25
2018-03-25T05:50:00.275Z,2.24
2018-03-25T05:51:53.581Z,2.14
2018-03-25T05:52:53.565Z,2.10
2018-03-25T05:54:46.842Z,2.13
2018-03-25T05:55:46.815Z,2.17
2018-03-25T05:57:40.174Z,2.14
2018-03-25T05:58:40.126Z,2.20
2018-03-25T06:00:33.447Z,2.22
2018-03-25T06:01:33.452Z,2.22
2018-03-25T06:03:26.686Z,2.24
2018-03-25T06:04:26.660Z,2.25
2018-03-25T06:06:20.011Z,2.31
2018-03-25T06:07:19.956Z,2.29
2018-03-25T06:09:13.253Z,2.28
2018-03-25T06:10:13.252Z,2.28
2018-03-25T06:12:06.553Z,2.28
2018-03-25T06:13:06.470Z,2.25
2018-03-25T06:14:59.813Z,2.28
2018-03-25T06:15:59.871Z,2.24
2018-03-25T06:17:53.077Z,2.31
2018-03-25T06:18:53.021Z,2.32
2018-03-25T06:20:46.388Z,2.31
2018-03-25T06:21:46.273Z,2.35
2018-03-25T06:23:39.707Z,2.33
2018-03-25T06:24:39.675Z,2.38
2018-03-25T06:26:32.990Z,2.47
2018-03-25T06:27:32.923Z,2.42
2018-03-25T06:29:26.206Z,2.38
2018-03-25T06:30:26.174Z,2.44
2018-03-25T06:32:19.536Z,2.43
2018-03-25T06:33:19.458Z,2.49
2018-03-25T06:35:12.772Z,2.47
2018-03-25T06:36:12.709Z,2.57
2018-03-25T06:38:06.057Z,2.57
2018-03-25T06:39:05.992Z,2.61
2018-03-25T06:40:59.322Z,2.60
2018-03-25T06:41:59.230Z,2.65
2018-03-25T06:43:52.533Z,2.71
2018-03-25T06:44:52.592Z,2.79
2018-03-25T06:46:45.817Z,2.86
2018-03-25T06:47:45.758Z,2.79
2018-03-25T06:49:39.171Z,2.79
2018-03-25T06:50:39.131Z,2.86
2018-03-25T06:52:32.454Z,2.80
2018-03-25T06:53:32.396Z,2.85
2018-03-25T06:55:25.698Z,2.90
2018-03-25T06:56:25.655Z,2.90
2018-03-25T06:58:18.984Z,3.00
2018-03-25T06:59:18.922Z,2.98
2018-03-25T07:01:12.255Z,2.90
2018-03-25T07:02:12.179Z,3.00
2018-03-25T07:04:05.496Z,3.08
2018-03-25T07:05:05.439Z,3.04
2018-03-25T07:06:59.044Z,3.10
2018-03-25T07:07:58.832Z,3.08
2018-03-25T07:09:52.121Z,3.19
2018-03-25T07:10:52.095Z,3.26
2018-03-25T07:12:45.418Z,3.26
2018-03-25T07:13:45.348Z,3.22
2018-03-25T07:15:38.694Z,3.37
2018-03-25T07:16:38.622Z,3.34
2018-03-25T07:18:31.951Z,3.41
2018-03-25T07:19:31.904Z,3.45
2018-03-25T07:21:25.194Z,3.55
2018-03-25T07:22:25.153Z,3.51
2018-03-25T07:24:18.495Z,3.45
2018-03-25T07:25:18.439Z,3.48
2018-03-25T07:27:11.758Z,3.60
2018-03-25T07:28:11.721Z,3.63
2018-03-25T07:30:05.039Z,3.63
2018-03-25T07:31:04.975Z,3.62
2018-03-25T07:32:58.494Z,3.68
2018-03-25T07:33:58.320Z,3.68
2018-03-25T07:35:51.623Z,3.76
2018-03-25T07:36:51.579Z,3.84
2018-03-25T07:38:44.899Z,3.87
2018-03-25T07:39:44.852Z,3.96
2018-03-25T07:41:38.174Z,3.96
2018-03-25T07:42:38.148Z,3.99
2018-03-25T07:44:31.452Z,4.06
2018-03-25T07:45:31.433Z,4.14
2018-03-25T07:47:24.718Z,4.20
2018-03-25T07:48:24.663Z,4.19
2018-03-25T07:50:18.006Z,4.20
2018-03-25T07:51:17.957Z,4.24
2018-03-25T07:53:12.274Z,4.31
2018-03-25T07:54:12.219Z,4.31
2018-03-25T07:56:05.533Z,4.30
2018-03-25T07:57:05.508Z,4.35
2018-03-25T07:58:58.883Z,4.40
2018-03-25T07:59:58.794Z,4.44
2018-03-25T08:01:52.104Z,4.58
2018-03-25T08:02:52.044Z,4.63
2018-03-25T08:04:45.391Z,4.70
2018-03-25T08:05:45.314Z,4.67
2018-03-25T08:07:38.813Z,4.90
2018-03-25T08:08:38.655Z,4.92
2018-03-25T08:10:31.975Z,4.82
2018-03-25T08:11:31.920Z,4.87
2018-03-25T08:13:25.222Z,4.99
2018-03-25T08:14:25.183Z,4.90
2018-03-25T08:16:18.734Z,5.07
2018-03-25T08:17:18.518Z,5.12
2018-03-25T08:19:11.814Z,5.10
2018-03-25T08:20:11.770Z,5.21
2018-03-25T08:22:05.107Z,5.32
2018-03-25T08:23:05.030Z,5.32
2018-03-25T08:24:58.483Z,5.44
2018-03-25T08:25:58.342Z,5.39
2018-03-25T08:27:51.640Z,5.47
2018-03-25T08:28:51.584Z,5.48
2018-03-25T08:30:44.894Z,5.61
2018-03-25T08:31:44.864Z,5.62
2018-03-25T08:33:38.362Z,5.75
2018-03-25T08:34:38.132Z,5.79
2018-03-25T08:36:31.425Z,5.99
2018-03-25T08:37:31.426Z,5.98
2018-03-25T08:39:24.810Z,6.08
2018-03-25T08:40:24.661Z,6.16
2018-03-25T08:42:18.073Z,6.20
2018-03-25T08:43:17.960Z,6.24
2018-03-25T08:45:10.801Z,6.30
2018-03-25T08:46:10.711Z,6.39
2018-03-25T08:48:04.045Z,6.51
2018-03-25T08:49:03.980Z,6.60
2018-03-25T08:50:57.294Z,6.77
2018-03-25T08:51:57.257Z,6.77
2018-03-25T08:53:50.654Z,6.85
2018-03-25T08:54:50.505Z,6.82
2018-03-25T08:56:43.825Z,6.89
2018-03-25T08:57:43.778Z,7.03
2018-03-25T08:59:37.104Z,7.05
2018-03-25T09:00:37.061Z,7.14
2018-03-25T09:02:30.459Z,7.25
2018-03-25T09:03:30.300Z,7.39
2018-03-25T09:05:23.629Z,7.42
2018-03-25T09:06:23.575Z,7.42
2018-03-25T09:08:16.893Z,7.51
2018-03-25T09:09:16.847Z,7.56
2018-03-25T09:11:10.289Z,7.67
2018-03-25T09:12:10.137Z,7.80
2018-03-25T09:14:03.107Z,7.94
2018-03-25T09:15:03.120Z,8.03
2018-03-25T09:16:56.520Z,8.16
2018-03-25T09:17:56.350Z,8.23
2018-03-25T09:19:49.635Z,8.37
2018-03-25T09:20:49.616Z,8.36
2018-03-25T09:22:42.939Z,8.51
2018-03-25T09:23:42.876Z,8.51
2018-03-25T09:25:36.324Z,8.67
2018-03-25T09:26:36.150Z,8.69
2018-03-25T09:28:29.481Z,8.78
2018-03-25T09:29:29.433Z,8.84
2018-03-25T09:31:23.714Z,8.94
2018-03-25T09:32:23.674Z,9.03
2018-03-25T09:34:17.195Z,9.14
2018-03-25T09:35:16.941Z,9.22
2018-03-25T09:37:10.276Z,9.39
2018-03-25T09:38:10.214Z,9.46
2018-03-25T09:40:03.547Z,9.51
2018-03-25T09:41:03.501Z,9.61
2018-03-25T09:42:56.991Z,9.55
2018-03-25T09:43:56.812Z,9.68
2018-03-25T09:45:50.141Z,9.82
2018-03-25T09:46:50.086Z,9.92
2018-03-25T09:48:43.388Z,9.89
2018-03-25T09:49:43.329Z,9.99
2018-03-25T09:51:36.674Z,10.04
2018-03-25T09:52:36.603Z,10.16
2018-03-25T09:54:29.948Z,10.26
2018-03-25T09:55:29.881Z,10.28
2018-03-25T09:57:23.265Z,10.51
2018-03-25T09:58:23.160Z,10.61
2018-03-25T10:00:16.645Z,10.79
2018-03-25T10:01:16.490Z,10.84
2018-03-25T10:03:09.798Z,10.94
2018-03-25T10:04:09.767Z,11.18
2018-03-25T10:06:03.144Z,11.88
2018-03-25T10:07:03.035Z,12.47
2018-03-25T10:08:56.570Z,13.54
2018-03-25T10:09:56.321Z,14.10
2018-03-25T10:11:49.670Z,14.96
2018-03-25T10:12:49.620Z,15.43
2018-03-25T10:14:42.971Z,16.24
2018-03-25T10:15:42.924Z,16.53
2018-03-25T10:17:37.880Z,17.39
2018-03-25T10:18:36.240Z,17.82
2018-03-25T10:20:29.579Z,18.60
2018-03-25T10:21:29.545Z,18.86
2018-03-25T10:23:22.905Z,19.19
2018-03-25T10:24:22.966Z,19.40
2018-03-25T10:26:16.181Z,20.31
2018-03-25T10:27:16.150Z,20.29
2018-03-25T10:29:09.652Z,20.88
2018-03-25T10:30:09.542Z,20.77
2018-03-25T10:32:02.906Z,21.17
2018-03-25T10:33:02.860Z,21.27
2018-03-25T10:34:56.200Z,21.07
2018-03-25T10:35:56.148Z,21.27
2018-03-25T10:37:50.575Z,21.91
2018-03-25T10:38:50.456Z,21.96
2018-03-25T10:40:43.843Z,22.04
2018-03-25T10:41:43.767Z,21.36
2018-03-25T10:43:37.107Z,20.24
2018-03-25T10:44:37.089Z,21.03
2018-03-25T10:46:30.457Z,22.18
2018-03-25T10:47:30.387Z,22.57
2018-03-25T10:49:23.735Z,22.23
2018-03-25T10:50:23.721Z,21.93
2018-03-25T10:52:17.055Z,22.22
2018-03-25T10:53:17.006Z,22.59
2018-03-25T10:55:10.421Z,22.68
2018-03-25T10:56:10.329Z,21.33
2018-03-25T10:58:03.772Z,20.31
2018-03-25T10:59:03.663Z,20.59
2018-03-25T11:00:57.025Z,21.29
2018-03-25T11:01:56.984Z,20.75
2018-03-25T11:03:50.373Z,21.06
2018-03-25T11:04:50.467Z,21.60
2018-03-25T11:06:43.725Z,21.70
2018-03-25T11:07:43.628Z,22.06
2018-03-25T11:09:37.087Z,22.72
2018-03-25T11:10:37.051Z,22.84
2018-03-25T11:12:30.397Z,21.30
2018-03-25T11:13:30.372Z,21.73
2018-03-25T11:15:23.683Z,22.83
2018-03-25T11:16:23.691Z,21.92
2018-03-25T11:18:17.073Z,21.14
2018-03-25T11:19:17.003Z,21.70
2018-03-25T11:21:11.301Z,22.73
2018-03-25T11:22:11.295Z,22.41
2018-03-25T11:24:04.663Z,22.72
2018-03-25T11:25:04.617Z,23.36
2018-03-25T11:26:57.971Z,23.73
2018-03-25T11:27:57.932Z,23.73
2018-03-25T11:29:51.281Z,24.03
2018-03-25T11:30:51.263Z,23.95
2018-03-25T11:32:44.652Z,23.51
2018-03-25T11:33:44.603Z,22.59
2018-03-25T11:35:37.928Z,22.85
2018-03-25T11:36:37.945Z,22.26
2018-03-25T11:38:31.351Z,19.66
2018-03-25T11:39:31.206Z,18.92
2018-03-25T11:41:24.530Z,18.53
2018-03-25T11:42:24.503Z,18.99
2018-03-25T11:44:17.864Z,18.26
2018-03-25T11:45:17.812Z,18.38
2018-03-25T11:47:11.232Z,19.16
2018-03-25T11:48:11.112Z,19.58
2018-03-25T11:50:04.784Z,18.89
2018-03-25T11:51:04.576Z,18.23
2018-03-25T11:52:57.926Z,18.62
2018-03-25T11:53:57.873Z,18.98
2018-03-25T11:55:51.189Z,20.06
2018-03-25T11:56:51.164Z,20.18
2018-03-25T11:58:44.620Z,20.69
2018-03-25T11:59:44.511Z,19.59
2018-03-25T12:01:37.832Z,20.75
2018-03-25T12:02:37.807Z,21.09
2018-03-25T12:04:31.163Z,22.11
2018-03-25T12:05:31.248Z,22.87
2018-03-25T12:07:24.460Z,23.68
2018-03-25T12:08:24.450Z,23.98
2018-03-25T12:10:17.854Z,24.39
2018-03-25T12:11:17.807Z,24.69
2018-03-25T12:13:11.152Z,24.51
2018-03-25T12:14:11.121Z,23.62
2018-03-25T12:16:04.479Z,21.85
2018-03-25T12:17:04.424Z,21.30
2018-03-25T12:18:58.036Z,22.43
2018-03-25T12:19:57.751Z,23.21
2018-03-25T12:21:51.080Z,24.05
2018-03-25T12:22:51.044Z,23.20
2018-03-25T12:24:44.394Z,22.62
2018-03-25T12:25:44.372Z,22.26
2018-03-25T12:27:37.701Z,22.51
2018-03-25T12:28:37.657Z,23.00
2018-03-25T12:30:31.216Z,24.24
2018-03-25T12:31:31.072Z,24.06
2018-03-25T12:33:24.419Z,23.73
2018-03-25T12:34:24.388Z,22.98
2018-03-25T12:36:17.754Z,22.85
2018-03-25T12:37:17.709Z,22.29
2018-03-25T12:39:11.156Z,21.70
2018-03-25T12:40:11.015Z,21.69
2018-03-25T12:42:04.356Z,22.30
2018-03-25T12:43:04.303Z,22.75
2018-03-25T12:44:57.668Z,22.72
2018-03-25T12:45:57.647Z,22.18
2018-03-25T12:47:51.965Z,22.90
2018-03-25T12:48:51.920Z,23.25
2018-03-25T12:50:46.336Z,22.90
2018-03-25T12:51:46.262Z,22.72
2018-03-25T12:53:39.608Z,20.80
2018-03-25T12:54:39.578Z,19.82
2018-03-25T12:56:32.915Z,19.95
2018-03-25T12:57:32.873Z,18.93
2018-03-25T12:59:26.255Z,19.49
2018-03-25T13:00:26.185Z,19.64
2018-03-25T13:02:19.532Z,20.44
2018-03-25T13:03:19.500Z,20.04
2018-03-25T13:05:12.856Z,19.88
2018-03-25T13:06:12.780Z,20.02
2018-03-25T13:08:06.144Z,19.54
2018-03-25T13:09:06.098Z,19.16
2018-03-25T13:10:59.424Z,18.81
2018-03-25T13:11:59.369Z,19.33
2018-03-25T13:13:52.703Z,18.90
2018-03-25T13:14:52.699Z,19.07
2018-03-25T13:16:46.053Z,18.44
2018-03-25T13:17:45.950Z,17.06
2018-03-25T13:19:39.439Z,17.36
2018-03-25T13:20:39.392Z,17.63
2018-03-25T13:22:32.805Z,17.95
2018-03-25T13:23:32.697Z,17.54
2018-03-25T13:25:26.015Z,18.49
2018-03-25T13:26:25.984Z,19.19
2018-03-25T13:28:19.479Z,19.24
2018-03-25T13:29:19.293Z,19.41
2018-03-25T13:31:12.653Z,19.30
2018-03-25T13:32:12.612Z,18.52
2018-03-25T13:34:05.952Z,18.95
2018-03-25T13:35:05.902Z,18.43
2018-03-25T13:36:59.385Z,17.80
2018-03-25T13:37:59.194Z,18.20
2018-03-25T13:39:52.689Z,19.27
2018-03-25T13:40:52.664Z,19.36
2018-03-25T13:42:45.994Z,18.31
2018-03-25T13:43:45.955Z,18.25
2018-03-25T13:45:39.280Z,18.47
2018-03-25T13:46:39.275Z,19.12
2018-03-25T13:48:32.648Z,19.36
2018-03-25T13:49:32.544Z,19.62
2018-03-25T13:51:25.873Z,19.84
2018-03-25T13:52:25.865Z,19.52
2018-03-25T13:54:19.186Z,19.69
2018-03-25T13:55:19.127Z,19.58
2018-03-25T13:57:13.580Z,18.89
2018-03-25T13:58:13.449Z,18.26
2018-03-25T14:00:06.762Z,17.52
2018-03-25T14:01:06.730Z,18.20
2018-03-25T14:03:00.085Z,17.98
2018-03-25T14:04:00.094Z,17.98
2018-03-25T14:05:53.359Z,18.59
2018-03-25T14:06:53.346Z,18.93
2018-03-25T14:08:46.726Z,19.27
2018-03-25T14:09:46.689Z,18.00
2018-03-25T14:11:39.979Z,18.29
2018-03-25T14:12:39.964Z,17.90
2018-03-25T14:14:33.305Z,19.19
2018-03-25T14:15:33.273Z,19.58
2018-03-25T14:17:26.607Z,19.64
2018-03-25T14:18:26.569Z,19.66
2018-03-25T14:20:19.895Z,20.25
2018-03-25T14:21:19.850Z,20.31
2018-03-25T14:23:13.211Z,20.02
2018-03-25T14:24:13.160Z,18.90
2018-03-25T14:26:06.558Z,18.13
2018-03-25T14:27:06.470Z,18.58
2018-03-25T14:29:00.817Z,18.99
2018-03-25T14:30:00.831Z,18.70
2018-03-25T14:31:54.108Z,17.06
2018-03-25T14:32:54.083Z,16.36
2018-03-25T14:34:47.458Z,16.39
2018-03-25T14:35:47.362Z,16.97
2018-03-25T14:37:40.680Z,17.24
2018-03-25T14:38:40.654Z,17.67
2018-03-25T14:40:34.029Z,17.70
2018-03-25T14:41:34.062Z,18.13
2018-03-25T14:43:27.293Z,18.25
2018-03-25T14:44:27.243Z,18.28
2018-03-25T14:46:20.625Z,17.87
2018-03-25T14:47:20.549Z,17.64
2018-03-25T14:49:13.886Z,17.42
2018-03-25T14:50:13.865Z,17.45
2018-03-25T14:52:07.184Z,17.67
2018-03-25T14:53:07.125Z,17.54
2018-03-25T14:55:00.522Z,17.20
2018-03-25T14:56:00.474Z,17.26
2018-03-25T14:57:53.819Z,17.60
2018-03-25T14:58:53.780Z,17.86
2018-03-25T15:00:47.123Z,17.33
2018-03-25T15:01:47.066Z,16.89
2018-03-25T15:03:40.504Z,17.82
2018-03-25T15:04:40.364Z,17.70
2018-03-25T15:06:33.737Z,17.71
2018-03-25T15:07:33.695Z,18.08
2018-03-25T15:09:27.001Z,18.16
2018-03-25T15:10:26.969Z,17.86
2018-03-25T15:12:20.400Z,17.23
2018-03-25T15:13:20.259Z,17.12
2018-03-25T15:15:13.575Z,16.84
2018-03-25T15:16:13.574Z,16.89
2018-03-25T15:18:06.911Z,16.72
2018-03-25T15:19:06.868Z,16.68
2018-03-25T15:21:00.236Z,16.26
2018-03-25T15:22:00.132Z,16.16
2018-03-25T15:23:53.590Z,15.72
2018-03-25T15:24:53.575Z,15.57
2018-03-25T15:26:46.927Z,15.43
2018-03-25T15:27:46.835Z,15.07
2018-03-25T15:29:40.175Z,15.00
2018-03-25T15:30:40.130Z,14.69
2018-03-25T15:32:33.645Z,14.63
2018-03-25T15:33:33.459Z,14.54
2018-03-25T15:35:26.770Z,14.63
2018-03-25T15:36:26.741Z,14.54
2018-03-25T15:38:20.076Z,14.62
2018-03-25T15:39:20.006Z,14.68
2018-03-25T15:41:13.433Z,14.37
2018-03-25T15:42:13.292Z,14.48
2018-03-25T15:44:06.619Z,14.48
2018-03-25T15:45:06.574Z,14.32
2018-03-25T15:46:59.892Z,14.33
2018-03-25T15:47:59.842Z,14.32
2018-03-25T15:49:53.321Z,14.26
2018-03-25T15:50:53.125Z,14.40
2018-03-25T15:52:46.460Z,14.40
2018-03-25T15:53:46.435Z,14.47
2018-03-25T15:55:39.751Z,14.51
2018-03-25T15:56:39.751Z,14.45
2018-03-25T15:58:33.082Z,14.29
2018-03-25T15:59:32.973Z,14.23
2018-03-25T16:01:26.304Z,14.07
2018-03-25T16:02:26.292Z,13.95
2018-03-25T16:04:19.640Z,13.90
2018-03-25T16:05:19.555Z,13.93
2018-03-25T16:07:12.854Z,13.92
2018-03-25T16:08:12.832Z,13.89
2018-03-25T16:10:06.155Z,13.81
2018-03-25T16:11:06.102Z,13.68
2018-03-25T16:12:59.442Z,13.87
2018-03-25T16:13:59.379Z,13.72
2018-03-25T16:15:52.799Z,13.67
2018-03-25T16:16:52.658Z,13.74
2018-03-25T16:18:46.007Z,13.75
2018-03-25T16:19:45.946Z,13.83
2018-03-25T16:21:40.126Z,13.79
2018-03-25T16:22:39.218Z,13.68
2018-03-25T16:24:32.591Z,13.59
2018-03-25T16:25:32.530Z,13.57
2018-03-25T16:27:25.830Z,13.70
2018-03-25T16:28:25.800Z,13.57
2018-03-25T16:30:19.092Z,13.59
2018-03-25T16:31:19.066Z,13.49
2018-03-25T16:33:12.436Z,13.53
2018-03-25T16:34:12.414Z,13.57
2018-03-25T16:36:06.066Z,13.49
2018-03-25T16:37:05.874Z,13.44
2018-03-25T16:38:59.177Z,13.44
2018-03-25T16:39:59.149Z,13.38
2018-03-25T16:41:52.160Z,13.31
2018-03-25T16:42:52.059Z,13.20
2018-03-25T16:44:46.392Z,13.22
2018-03-25T16:45:46.346Z,13.28
2018-03-25T16:47:39.580Z,13.18
2018-03-25T16:48:39.429Z,13.18
2018-03-25T16:50:33.013Z,13.13
2018-03-25T16:51:32.872Z,13.03
2018-03-25T16:53:26.151Z,13.00
2018-03-25T16:54:26.119Z,12.93
2018-03-25T16:56:19.478Z,12.94
2018-03-25T16:57:19.410Z,12.95
2018-03-25T16:59:12.721Z,12.85
2018-03-25T17:00:12.701Z,12.82
2018-03-25T17:02:06.034Z,12.76
2018-03-25T17:03:05.964Z,12.75
2018-03-25T17:04:59.334Z,12.72
2018-03-25T17:05:59.312Z,12.79
2018-03-25T17:07:52.735Z,12.80
2018-03-25T17:08:52.548Z,12.79
2018-03-25T17:10:45.888Z,12.58
2018-03-25T17:11:45.841Z,12.61
2018-03-25T17:13:39.165Z,12.64
2018-03-25T17:14:39.126Z,12.50
2018-03-25T17:16:32.649Z,12.57
2018-03-25T17:17:32.383Z,12.58
2018-03-25T17:19:25.722Z,12.53
2018-03-25T17:20:25.676Z,12.53
2018-03-25T17:22:18.981Z,12.36
2018-03-25T17:23:18.929Z,12.40
2018-03-25T17:25:12.399Z,12.39
2018-03-25T17:26:12.207Z,12.31
2018-03-25T17:28:05.631Z,12.32
2018-03-25T17:29:05.516Z,12.22
2018-03-25T17:30:58.823Z,12.31
2018-03-25T17:31:58.768Z,12.25
2018-03-25T17:33:52.265Z,12.24
2018-03-25T17:34:52.093Z,12.27
2018-03-25T17:36:45.399Z,12.10
2018-03-25T17:37:45.366Z,12.10
2018-03-25T17:39:38.726Z,12.18
2018-03-25T17:40:38.653Z,12.22
2018-03-25T17:42:31.990Z,12.15
2018-03-25T17:43:31.972Z,12.06
2018-03-25T17:45:25.315Z,12.12
2018-03-25T17:46:25.236Z,12.10
2018-03-25T17:48:18.524Z,12.13
2018-03-25T17:49:18.485Z,12.06
2018-03-25T17:51:11.931Z,12.07
2018-03-25T17:52:11.757Z,12.10
2018-03-25T17:54:05.110Z,12.00
2018-03-25T17:55:05.060Z,11.95
2018-03-25T17:56:58.400Z,11.88
2018-03-25T17:57:58.359Z,11.97
2018-03-25T17:59:51.741Z,11.87
2018-03-25T18:00:51.626Z,11.88
2018-03-25T18:02:44.928Z,11.83
2018-03-25T18:03:44.897Z,11.80
2018-03-25T18:05:38.278Z,11.65
2018-03-25T18:06:38.159Z,11.68
2018-03-25T18:08:31.545Z,11.78
2018-03-25T18:09:31.431Z,11.68
2018-03-25T18:11:24.794Z,11.68
2018-03-25T18:12:24.765Z,11.60
2018-03-25T18:14:18.020Z,11.66
2018-03-25T18:15:17.979Z,11.66
2018-03-25T18:17:33.462Z,11.72
2018-03-25T18:18:11.277Z,11.65
2018-03-25T18:20:04.601Z,11.55
2018-03-25T18:21:04.547Z,11.63
2018-03-25T18:22:57.885Z,11.66
2018-03-25T18:23:57.797Z,11.68
2018-03-25T18:25:51.212Z,11.50
2018-03-25T18:26:51.071Z,11.52
2018-03-25T18:28:44.423Z,11.54
2018-03-25T18:29:44.342Z,11.52
2018-03-25T18:31:37.688Z,11.48
2018-03-25T18:32:37.637Z,11.57
2018-03-25T18:34:31.021Z,11.57
2018-03-25T18:35:30.896Z,11.45
2018-03-25T18:37:24.275Z,11.48
2018-03-25T18:38:24.202Z,11.43
2018-03-25T18:40:17.541Z,11.41
2018-03-25T18:41:17.502Z,11.35
2018-03-25T18:43:10.846Z,11.47
2018-03-25T18:44:10.750Z,11.45
2018-03-25T18:46:04.077Z,11.52
2018-03-25T18:47:04.111Z,11.41
2018-03-25T18:48:57.352Z,11.36
2018-03-25T18:49:57.322Z,11.37
2018-03-25T18:51:50.722Z,11.36
2018-03-25T18:52:50.589Z,11.37
2018-03-25T18:54:43.897Z,11.44